sensor_id;sensor_type;location;lat;lon;timestamp;pressure;altitude;pressure_sealevel;temperature;humidity
61643;BME280;47551;52.506;4.678;2022-08-01T00:00:08;101733.78;;;18.69;100.00
61643;BME280;47551;52.506;4.678;2022-08-01T00:00:29;101729.53;;;18.65;100.00
61643;BME280;47551;52.506;4.678;2022-08-01T00:00:49;101725.94;;;18.66;100.00
61643;BME280;47551;52.506;4.678;2022-08-01T00:01:12;101734.81;;;18.66;100.00
61643;BME280;47551;52.506;4.678;2022-08-01T00:01:32;101726.88;;;18.65;100.00
61643;BME280;47551;52.506;4.678;2022-08-01T00:01:56;101737.78;;;18.62;100.00
61643;BME280;47551;52.506;4.678;2022-08-01T00:02:16;101733.28;;;18.62;100.00
61643;BME280;47551;52.506;4.678;2022-08-01T00:02:39;101733.94;;;18.66;100.00
61643;BME280;47551;52.506;4.678;2022-08-01T00:03:00;101732.44;;;18.62;100.00
61643;BME280;47551;52.506;4.678;2022-08-01T00:03:43;101732.44;;;18.62;100.00
61643;BME280;47551;52.506;4.678;2022-08-01T00:04:04;101732.50;;;18.60;100.00
61643;BME280;47551;52.506;4.678;2022-08-01T00:04:24;101724.50;;;18.60;100.00
61643;BME280;47551;52.506;4.678;2022-08-01T00:04:45;101730.69;;;18.61;100.00
61643;BME280;47551;52.506;4.678;2022-08-01T00:05:06;101728.81;;;18.63;100.00
61643;BME280;47551;52.506;4.678;2022-08-01T00:05:27;101730.50;;;18.64;100.00
61643;BME280;47551;52.506;4.678;2022-08-01T00:05:47;101735.78;;;18.65;100.00
61643;BME280;47551;52.506;4.678;2022-08-01T00:06:07;101728.81;;;18.63;100.00
61643;BME280;47551;52.506;4.678;2022-08-01T00:06:30;101739.47;;;18.63;100.00
61643;BME280;47551;52.506;4.678;2022-08-01T00:06:54;101728.81;;;18.63;100.00
61643;BME280;47551;52.506;4.678;2022-08-01T00:07:16;101730.50;;;18.64;100.00
61643;BME280;47551;52.506;4.678;2022-08-01T00:07:37;101735.09;;;18.62;100.00
61643;BME280;47551;52.506;4.678;2022-08-01T00:07:58;101743.13;;;18.62;100.00
61643;BME280;47551;52.506;4.678;2022-08-01T00:08:21;101736.03;;;18.61;100.00
61643;BME280;47551;52.506;4.678;2022-08-01T00:08:41;101732.44;;;18.62;100.00
61643;BME280;47551;52.506;4.678;2022-08-01T00:09:04;101734.13;;;18.63;100.00
61643;BME280;47551;52.506;4.678;2022-08-01T00:09:30;101730.63;;;18.62;100.00
61643;BME280;47551;52.506;4.678;2022-08-01T00:10:12;101739.56;;;18.61;100.00
61643;BME280;47551;52.506;4.678;2022-08-01T00:10:32;101741.19;;;18.64;100.00
61643;BME280;47551;52.506;4.678;2022-08-01T00:10:53;101730.50;;;18.64;100.00
61643;BME280;47551;52.506;4.678;2022-08-01T00:11:13;101738.34;;;18.67;100.00
61643;BME280;47551;52.506;4.678;2022-08-01T00:11:34;101738.34;;;18.67;100.00
61643;BME280;47551;52.506;4.678;2022-08-01T00:11:57;101741.00;;;18.67;100.00
61643;BME280;47551;52.506;4.678;2022-08-01T00:12:18;101737.47;;;18.66;100.00
61643;BME280;47551;52.506;4.678;2022-08-01T00:12:38;101729.84;;;18.60;100.00
61643;BME280;47551;52.506;4.678;2022-08-01T00:12:59;101734.50;;;18.57;100.00
61643;BME280;47551;52.506;4.678;2022-08-01T00:13:19;101735.19;;;18.60;100.00
61643;BME280;47551;52.506;4.678;2022-08-01T00:13:39;101734.50;;;18.57;100.00
61643;BME280;47551;52.506;4.678;2022-08-01T00:14:17;101732.81;;;18.56;100.00
61643;BME280;47551;52.506;4.678;2022-08-01T00:14:38;101733.47;;;18.59;100.00
61643;BME280;47551;52.506;4.678;2022-08-01T00:14:58;101729.53;;;18.65;100.00
61643;BME280;47551;52.506;4.678;2022-08-01T00:15:22;101729.75;;;18.62;100.00
61643;BME280;47551;52.506;4.678;2022-08-01T00:15:42;101732.22;;;18.65;100.00
61643;BME280;47551;52.506;4.678;2022-08-01T00:16:02;101729.53;;;18.65;100.00
61643;BME280;47551;52.506;4.678;2022-08-01T00:16:23;101733.00;;;18.67;100.00
61643;BME280;47551;52.506;4.678;2022-08-01T00:16:46;101728.63;;;18.66;100.00
61643;BME280;47551;52.506;4.678;2022-08-01T00:17:09;101725.34;;;18.61;100.00
61643;BME280;47551;52.506;4.678;2022-08-01T00:17:29;101724.31;;;18.63;100.00
61643;BME280;47551;52.506;4.678;2022-08-01T00:17:52;101735.00;;;18.63;100.00
61643;BME280;47551;52.506;4.678;2022-08-01T00:18:15;101730.31;;;18.67;100.00
61643;BME280;47551;52.506;4.678;2022-08-01T00:18:36;101728.63;;;18.66;100.00
61643;BME280;47551;52.506;4.678;2022-08-01T00:18:56;101726.88;;;18.65;100.00
61643;BME280;47551;52.506;4.678;2022-08-01T00:19:16;101726.88;;;18.65;100.00
61643;BME280;47551;52.506;4.678;2022-08-01T00:19:37;101725.34;;;18.61;100.00
61643;BME280;47551;52.506;4.678;2022-08-01T00:19:57;101732.44;;;18.62;100.00
61643;BME280;47551;52.506;4.678;2022-08-01T00:20:17;101729.16;;;18.57;100.00
61643;BME280;47551;52.506;4.678;2022-08-01T00:20:38;101728.41;;;18.55;100.00
61643;BME280;47551;52.506;4.678;2022-08-01T00:21:01;101731.00;;;18.56;100.00
61643;BME280;47551;52.506;4.678;2022-08-01T00:21:21;101732.81;;;18.56;100.00
61643;BME280;47551;52.506;4.678;2022-08-01T00:21:42;101725.53;;;18.58;100.00
61643;BME280;47551;52.506;4.678;2022-08-01T00:22:02;101732.81;;;18.56;100.00
61643;BME280;47551;52.506;4.678;2022-08-01T00:22:23;101723.84;;;18.57;100.00
61643;BME280;47551;52.506;4.678;2022-08-01T00:22:43;101732.03;;;18.54;100.00
61643;BME280;47551;52.506;4.678;2022-08-01T00:23:03;101733.00;;;18.53;100.00
61643;BME280;47551;52.506;4.678;2022-08-01T00:23:25;101733.00;;;18.53;100.00
61643;BME280;47551;52.506;4.678;2022-08-01T00:23:51;101730.22;;;18.54;100.00
61643;BME280;47551;52.506;4.678;2022-08-01T00:24:11;101734.88;;;18.50;100.00
61643;BME280;47551;52.506;4.678;2022-08-01T00:24:32;101729.53;;;18.50;100.00
61643;BME280;47551;52.506;4.678;2022-08-01T00:24:55;101733.84;;;18.53;100.00
61643;BME280;47551;52.506;4.678;2022-08-01T00:25:18;101736.41;;;18.55;100.00
61643;BME280;47551;52.506;4.678;2022-08-01T00:25:41;101729.34;;;18.54;100.00
61643;BME280;47551;52.506;4.678;2022-08-01T00:26:04;101734.88;;;18.50;100.00
61643;BME280;47551;52.506;4.678;2022-08-01T00:26:24;101735.84;;;18.49;100.00
61643;BME280;47551;52.506;4.678;2022-08-01T00:26:47;101733.06;;;18.51;100.00
61643;BME280;47551;52.506;4.678;2022-08-01T00:27:11;101733.94;;;18.52;100.00
61643;BME280;47551;52.506;4.678;2022-08-01T00:27:31;101728.69;;;18.50;100.00
61643;BME280;47551;52.506;4.678;2022-08-01T00:27:52;101734.03;;;18.50;100.00
61643;BME280;47551;52.506;4.678;2022-08-01T00:28:13;101732.81;;;18.56;100.00
61643;BME280;47551;52.506;4.678;2022-08-01T00:28:34;101735.38;;;18.57;100.00
61643;BME280;47551;52.506;4.678;2022-08-01T00:28:54;101730.69;;;18.61;100.00
61643;BME280;47551;52.506;4.678;2022-08-01T00:29:17;101733.38;;;18.61;100.00
61643;BME280;47551;52.506;4.678;2022-08-01T00:29:40;101735.38;;;18.57;100.00
61643;BME280;47551;52.506;4.678;2022-08-01T00:30:04;101733.47;;;18.59;100.00
61643;BME280;47551;52.506;4.678;2022-08-01T00:30:25;101731.75;;;18.58;100.00
61643;BME280;47551;52.506;4.678;2022-08-01T00:30:45;101736.22;;;18.58;100.00
61643;BME280;47551;52.506;4.678;2022-08-01T00:31:05;101730.03;;;18.57;100.00
61643;BME280;47551;52.506;4.678;2022-08-01T00:31:29;101733.66;;;18.56;100.00
61643;BME280;47551;52.506;4.678;2022-08-01T00:31:49;101734.50;;;18.57;100.00
61643;BME280;47551;52.506;4.678;2022-08-01T00:32:09;101735.47;;;18.56;100.00
61643;BME280;47551;52.506;4.678;2022-08-01T00:32:31;101737.38;;;18.54;100.00
61643;BME280;47551;52.506;4.678;2022-08-01T00:32:54;101734.03;;;18.50;100.00
61643;BME280;47551;52.506;4.678;2022-08-01T00:33:17;101731.47;;;18.48;100.00
61643;BME280;47551;52.506;4.678;2022-08-01T00:33:37;101731.28;;;18.52;100.00
61643;BME280;47551;52.506;4.678;2022-08-01T00:33:58;101727.66;;;18.53;100.00
61643;BME280;47551;52.506;4.678;2022-08-01T00:34:18;101732.22;;;18.50;100.00
61643;BME280;47551;52.506;4.678;2022-08-01T00:34:48;101733.16;;;18.49;100.00
61643;BME280;47551;52.506;4.678;2022-08-01T00:35:08;101736.03;;;18.46;100.00
61643;BME280;47551;52.506;4.678;2022-08-01T00:35:29;101739.34;;;18.50;100.00
61643;BME280;47551;52.506;4.678;2022-08-01T00:35:54;101733.16;;;18.49;100.00
61643;BME280;47551;52.506;4.678;2022-08-01T00:36:15;101736.81;;;18.48;100.00
61643;BME280;47551;52.506;4.678;2022-08-01T00:36:36;101738.31;;;18.53;100.00
61643;BME280;47551;52.506;4.678;2022-08-01T00:36:56;101736.41;;;18.55;100.00
61643;BME280;47551;52.506;4.678;2022-08-01T00:37:17;101732.03;;;18.54;100.00
61643;BME280;47551;52.506;4.678;2022-08-01T00:37:37;101731.94;;;18.55;100.00
61643;BME280;47551;52.506;4.678;2022-08-01T00:37:57;101732.81;;;18.56;100.00
61643;BME280;47551;52.506;4.678;2022-08-01T00:38:18;101734.69;;;18.54;100.00
61643;BME280;47551;52.506;4.678;2022-08-01T00:38:38;101731.06;;;18.55;100.00
61643;BME280;47551;52.506;4.678;2022-08-01T00:39:01;101733.00;;;18.53;100.00
61643;BME280;47551;52.506;4.678;2022-08-01T00:39:22;101733.00;;;18.53;100.00
61643;BME280;47551;52.506;4.678;2022-08-01T00:39:42;101735.53;;;18.54;100.00
61643;BME280;47551;52.506;4.678;2022-08-01T00:40:03;101733.72;;;18.55;100.00
61643;BME280;47551;52.506;4.678;2022-08-01T00:40:23;101733.53;;;18.58;100.00
61643;BME280;47551;52.506;4.678;2022-08-01T00:40:44;101736.03;;;18.61;100.00
61643;BME280;47551;52.506;4.678;2022-08-01T00:41:07;101729.00;;;18.60;100.00
61643;BME280;47551;52.506;4.678;2022-08-01T00:41:27;101738.22;;;18.54;100.00
61643;BME280;47551;52.506;4.678;2022-08-01T00:41:50;101728.50;;;18.53;100.00
61643;BME280;47551;52.506;4.678;2022-08-01T00:42:11;101735.84;;;18.49;100.00
61643;BME280;47551;52.506;4.678;2022-08-01T00:42:32;101731.28;;;18.52;100.00
61643;BME280;47551;52.506;4.678;2022-08-01T00:42:52;101737.47;;;18.52;100.00
61643;BME280;47551;52.506;4.678;2022-08-01T00:43:13;101737.38;;;18.54;100.00
61643;BME280;47551;52.506;4.678;2022-08-01T00:43:33;101739.06;;;18.55;100.00
61643;BME280;47551;52.506;4.678;2022-08-01T00:43:57;101735.66;;;18.53;100.00
61643;BME280;47551;52.506;4.678;2022-08-01T00:44:17;101738.31;;;18.53;100.00
61643;BME280;47551;52.506;4.678;2022-08-01T00:44:38;101739.97;;;18.55;100.00
61643;BME280;47551;52.506;4.678;2022-08-01T00:44:59;101744.41;;;18.55;100.00
61643;BME280;47551;52.506;4.678;2022-08-01T00:45:19;101732.13;;;18.52;100.00
61643;BME280;47551;52.506;4.678;2022-08-01T00:45:40;101732.81;;;18.56;100.00
61643;BME280;47551;52.506;4.678;2022-08-01T00:46:03;101741.75;;;18.55;100.00
61643;BME280;47551;52.506;4.678;2022-08-01T00:46:26;101744.34;;;18.56;100.00
61643;BME280;47551;52.506;4.678;2022-08-01T00:46:46;101735.53;;;18.54;100.00
61643;BME280;47551;52.506;4.678;2022-08-01T00:47:08;101742.81;;;18.52;100.00
61643;BME280;47551;52.506;4.678;2022-08-01T00:47:28;101739.19;;;18.53;100.00
61643;BME280;47551;52.506;4.678;2022-08-01T00:47:49;101739.84;;;18.57;100.00
61643;BME280;47551;52.506;4.678;2022-08-01T00:48:09;101747.78;;;18.58;100.00
61643;BME280;47551;52.506;4.678;2022-08-01T00:48:30;101743.28;;;18.59;100.00
61643;BME280;47551;52.506;4.678;2022-08-01T00:48:50;101737.47;;;18.52;100.00
61643;BME280;47551;52.506;4.678;2022-08-01T00:49:11;101739.97;;;18.55;100.00
61643;BME280;47551;52.506;4.678;2022-08-01T00:49:31;101739.78;;;18.58;100.00
61643;BME280;47551;52.506;4.678;2022-08-01T00:49:52;101742.44;;;18.58;100.00
61643;BME280;47551;52.506;4.678;2022-08-01T00:50:15;101737.00;;;18.60;100.00
61643;BME280;47551;52.506;4.678;2022-08-01T00:50:36;101743.28;;;18.59;100.00
61643;BME280;47551;52.506;4.678;2022-08-01T00:50:56;101741.56;;;18.58;100.00
61643;BME280;47551;52.506;4.678;2022-08-01T00:51:17;101739.84;;;18.57;100.00
61643;BME280;47551;52.506;4.678;2022-08-01T00:51:38;101736.22;;;18.58;100.00
61643;BME280;47551;52.506;4.678;2022-08-01T00:51:59;101733.66;;;18.56;100.00
61643;BME280;47551;52.506;4.678;2022-08-01T00:52:22;101740.63;;;18.59;100.00
61643;BME280;47551;52.506;4.678;2022-08-01T00:52:43;101741.56;;;18.58;100.00
61643;BME280;47551;52.506;4.678;2022-08-01T00:53:03;101741.56;;;18.58;100.00
61643;BME280;47551;52.506;4.678;2022-08-01T00:53:25;101740.69;;;18.57;100.00
61643;BME280;47551;52.506;4.678;2022-08-01T00:53:45;101740.81;;;18.56;100.00
61643;BME280;47551;52.506;4.678;2022-08-01T00:54:06;101744.22;;;18.58;100.00
61643;BME280;47551;52.506;4.678;2022-08-01T00:54:26;101734.31;;;18.60;100.00
61643;BME280;47551;52.506;4.678;2022-08-01T00:54:47;101739.84;;;18.57;100.00
61643;BME280;47551;52.506;4.678;2022-08-01T00:55:09;101742.50;;;18.57;100.00
61643;BME280;47551;52.506;4.678;2022-08-01T00:55:31;101742.44;;;18.58;100.00
61643;BME280;47551;52.506;4.678;2022-08-01T00:55:52;101739.00;;;18.56;100.00
61643;BME280;47551;52.506;4.678;2022-08-01T00:56:13;101740.69;;;18.57;100.00
61643;BME280;47551;52.506;4.678;2022-08-01T00:56:33;101745.28;;;18.55;100.00
61643;BME280;47551;52.506;4.678;2022-08-01T00:56:54;101744.16;;;18.59;100.00
61643;BME280;47551;52.506;4.678;2022-08-01T00:57:15;101738.69;;;18.61;100.00
61643;BME280;47551;52.506;4.678;2022-08-01T00:57:35;101739.78;;;18.58;100.00
61643;BME280;47551;52.506;4.678;2022-08-01T00:57:57;101739.66;;;18.60;100.00
61643;BME280;47551;52.506;4.678;2022-08-01T00:58:18;101740.53;;;18.60;100.00
61643;BME280;47551;52.506;4.678;2022-08-01T00:58:41;101727.09;;;18.62;100.00
61643;BME280;47551;52.506;4.678;2022-08-01T00:59:13;101735.66;;;18.67;100.00
61643;BME280;47551;52.506;4.678;2022-08-01T00:59:34;101735.84;;;18.64;100.00
61643;BME280;47551;52.506;4.678;2022-08-01T00:59:54;101746.34;;;18.67;100.00
61643;BME280;47551;52.506;4.678;2022-08-01T01:00:14;101736.69;;;18.64;100.00
61643;BME280;47551;52.506;4.678;2022-08-01T01:00:35;101740.16;;;18.66;100.00
61643;BME280;47551;52.506;4.678;2022-08-01T01:00:55;101735.84;;;18.64;100.00
61643;BME280;47551;52.506;4.678;2022-08-01T01:01:16;101743.84;;;18.64;100.00
61643;BME280;47551;52.506;4.678;2022-08-01T01:01:37;101741.97;;;18.66;100.00
61643;BME280;47551;52.506;4.678;2022-08-01T01:01:57;101738.44;;;18.65;100.00
61643;BME280;47551;52.506;4.678;2022-08-01T01:02:18;101737.56;;;18.65;100.00
61643;BME280;47551;52.506;4.678;2022-08-01T01:02:38;101741.19;;;18.64;100.00
61643;BME280;47551;52.506;4.678;2022-08-01T01:03:01;101746.53;;;18.64;100.00
61643;BME280;47551;52.506;4.678;2022-08-01T01:03:23;101738.63;;;18.62;100.00
61643;BME280;47551;52.506;4.678;2022-08-01T01:03:43;101739.47;;;18.63;100.00
61643;BME280;47551;52.506;4.678;2022-08-01T01:04:04;101742.91;;;18.65;100.00
61643;BME280;47551;52.506;4.678;2022-08-01T01:04:24;101731.47;;;18.63;100.00
61643;BME280;47551;52.506;4.678;2022-08-01T01:04:44;101743.00;;;18.63;100.00
61643;BME280;47551;52.506;4.678;2022-08-01T01:05:05;101736.03;;;18.61;100.00
61643;BME280;47551;52.506;4.678;2022-08-01T01:05:26;101748.22;;;18.65;100.00
61643;BME280;47551;52.506;4.678;2022-08-01T01:06:30;101733.09;;;18.65;100.00
61643;BME280;47551;52.506;4.678;2022-08-01T01:07:06;101736.50;;;18.67;100.00
61643;BME280;47551;52.506;4.678;2022-08-01T01:08:13;101734.50;;;18.71;100.00
61643;BME280;47551;52.506;4.678;2022-08-01T01:08:55;101738.97;;;18.72;100.00
61643;BME280;47551;52.506;4.678;2022-08-01T01:09:50;101738.06;;;18.71;100.00
61643;BME280;47551;52.506;4.678;2022-08-01T01:10:17;101737.19;;;18.71;100.00
61643;BME280;47551;52.506;4.678;2022-08-01T01:10:52;101737.19;;;18.71;100.00
61643;BME280;47551;52.506;4.678;2022-08-01T01:11:29;101734.13;;;18.63;100.00
61643;BME280;47551;52.506;4.678;2022-08-01T01:11:57;101738.63;;;18.62;100.00
61643;BME280;47551;52.506;4.678;2022-08-01T01:12:29;101733.53;;;18.58;100.00
61643;BME280;47551;52.506;4.678;2022-08-01T01:13:02;101742.34;;;18.60;100.00
61643;BME280;47551;52.506;4.678;2022-08-01T01:13:52;101746.81;;;18.59;100.00
61643;BME280;47551;52.506;4.678;2022-08-01T01:14:23;101741.56;;;18.58;100.00
61643;BME280;47551;52.506;4.678;2022-08-01T01:14:53;101739.66;;;18.60;100.00
61643;BME280;47551;52.506;4.678;2022-08-01T01:15:46;101742.22;;;18.61;100.00
61643;BME280;47551;52.506;4.678;2022-08-01T01:16:11;101743.97;;;18.62;100.00
61643;BME280;47551;52.506;4.678;2022-08-01T01:16:33;101742.16;;;18.63;100.00
61643;BME280;47551;52.506;4.678;2022-08-01T01:17:00;101737.56;;;18.65;100.00
61643;BME280;47551;52.506;4.678;2022-08-01T01:17:28;101733.84;;;18.67;100.00
61643;BME280;47551;52.506;4.678;2022-08-01T01:18:42;101738.22;;;18.68;100.00
61643;BME280;47551;52.506;4.678;2022-08-01T01:18:45;101733.00;;;18.67;100.00
61643;BME280;47551;52.506;4.678;2022-08-01T01:19:10;101736.44;;;18.69;100.00
61643;BME280;47551;52.506;4.678;2022-08-01T01:19:39;101738.22;;;18.68;100.00
61643;BME280;47551;52.506;4.678;2022-08-01T01:20:02;101735.78;;;18.65;100.00
61643;BME280;47551;52.506;4.678;2022-08-01T01:20:30;101732.22;;;18.65;100.00
61643;BME280;47551;52.506;4.678;2022-08-01T01:21:57;101741.00;;;18.67;100.00
61643;BME280;47551;52.506;4.678;2022-08-01T01:22:33;101739.19;;;18.67;100.00
61643;BME280;47551;52.506;4.678;2022-08-01T01:25:41;101732.22;;;18.65;100.00
61643;BME280;47551;52.506;4.678;2022-08-01T01:27:00;101730.50;;;18.64;100.00
61643;BME280;47551;52.506;4.678;2022-08-01T01:27:39;101734.13;;;18.63;100.00
61643;BME280;47551;52.506;4.678;2022-08-01T01:28:17;101741.97;;;18.66;100.00
61643;BME280;47551;52.506;4.678;2022-08-01T01:29:05;101739.47;;;18.63;100.00
61643;BME280;47551;52.506;4.678;2022-08-01T01:29:40;101737.78;;;18.62;100.00
61643;BME280;47551;52.506;4.678;2022-08-01T01:30:10;101731.53;;;18.61;100.00
61643;BME280;47551;52.506;4.678;2022-08-01T01:30:31;101728.81;;;18.63;100.00
61643;BME280;47551;52.506;4.678;2022-08-01T01:30:55;101733.94;;;18.66;100.00
61643;BME280;47551;52.506;4.678;2022-08-01T01:31:19;101733.28;;;18.62;100.00
61643;BME280;47551;52.506;4.678;2022-08-01T01:31:49;101729.00;;;18.60;100.00
61643;BME280;47551;52.506;4.678;2022-08-01T01:32:16;101737.09;;;18.58;100.00
61643;BME280;47551;52.506;4.678;2022-08-01T01:32:46;101739.66;;;18.60;100.00
61643;BME280;47551;52.506;4.678;2022-08-01T01:33:12;101734.31;;;18.60;100.00
61643;BME280;47551;52.506;4.678;2022-08-01T01:33:34;101736.03;;;18.61;100.00
61643;BME280;47551;52.506;4.678;2022-08-01T01:33:59;101733.47;;;18.59;100.00
61643;BME280;47551;52.506;4.678;2022-08-01T01:34:22;101737.28;;;18.55;100.00
61643;BME280;47551;52.506;4.678;2022-08-01T01:34:44;101739.00;;;18.56;100.00
61643;BME280;47551;52.506;4.678;2022-08-01T01:35:09;101737.19;;;18.57;100.00
61643;BME280;47551;52.506;4.678;2022-08-01T01:35:34;101738.13;;;18.56;100.00
61643;BME280;47551;52.506;4.678;2022-08-01T01:35:59;101736.22;;;18.58;100.00
61643;BME280;47551;52.506;4.678;2022-08-01T01:36:27;101743.28;;;18.59;100.00
61643;BME280;47551;52.506;4.678;2022-08-01T01:36:53;101739.78;;;18.58;100.00
61643;BME280;47551;52.506;4.678;2022-08-01T01:37:17;101740.81;;;18.56;100.00
61643;BME280;47551;52.506;4.678;2022-08-01T01:37:40;101744.22;;;18.58;100.00
61643;BME280;47551;52.506;4.678;2022-08-01T01:38:09;101735.47;;;18.56;100.00
61643;BME280;47551;52.506;4.678;2022-08-01T01:38:34;101738.31;;;18.53;100.00
61643;BME280;47551;52.506;4.678;2022-08-01T01:38:56;101734.69;;;18.54;100.00
61643;BME280;47551;52.506;4.678;2022-08-01T01:39:18;101737.38;;;18.54;100.00
61643;BME280;47551;52.506;4.678;2022-08-01T01:39:44;101740.03;;;18.54;100.00
61643;BME280;47551;52.506;4.678;2022-08-01T01:40:07;101734.69;;;18.54;100.00
61643;BME280;47551;52.506;4.678;2022-08-01T01:40:30;101736.50;;;18.53;100.00
61643;BME280;47551;52.506;4.678;2022-08-01T01:40:51;101737.19;;;18.57;100.00
61643;BME280;47551;52.506;4.678;2022-08-01T01:41:14;101734.50;;;18.57;100.00
61643;BME280;47551;52.506;4.678;2022-08-01T01:41:37;101734.31;;;18.60;100.00
61643;BME280;47551;52.506;4.678;2022-08-01T01:41:59;101737.78;;;18.62;100.00
61643;BME280;47551;52.506;4.678;2022-08-01T01:42:21;101731.84;;;18.57;100.00
61643;BME280;47551;52.506;4.678;2022-08-01T01:42:44;101734.50;;;18.57;100.00
61643;BME280;47551;52.506;4.678;2022-08-01T01:43:09;101737.78;;;18.62;100.00
61643;BME280;47551;52.506;4.678;2022-08-01T01:43:31;101732.44;;;18.62;100.00
61643;BME280;47551;52.506;4.678;2022-08-01T01:43:53;101739.56;;;18.61;100.00
61643;BME280;47551;52.506;4.678;2022-08-01T01:44:14;101741.38;;;18.61;100.00
61643;BME280;47551;52.506;4.678;2022-08-01T01:44:37;101739.56;;;18.61;100.00
61643;BME280;47551;52.506;4.678;2022-08-01T01:44:58;101731.53;;;18.61;100.00
61643;BME280;47551;52.506;4.678;2022-08-01T01:45:21;101731.53;;;18.61;100.00
61643;BME280;47551;52.506;4.678;2022-08-01T01:45:44;101743.13;;;18.62;100.00
61643;BME280;47551;52.506;4.678;2022-08-01T01:46:07;101739.47;;;18.63;100.00
61643;BME280;47551;52.506;4.678;2022-08-01T01:46:34;101739.66;;;18.60;100.00
61643;BME280;47551;52.506;4.678;2022-08-01T01:46:58;101743.13;;;18.62;100.00
61643;BME280;47551;52.506;4.678;2022-08-01T01:47:20;101742.22;;;18.61;100.00
61643;BME280;47551;52.506;4.678;2022-08-01T01:47:43;101748.44;;;18.62;100.00
61643;BME280;47551;52.506;4.678;2022-08-01T01:48:05;101744.03;;;18.61;100.00
61643;BME280;47551;52.506;4.678;2022-08-01T01:48:26;101747.66;;;18.60;100.00
61643;BME280;47551;52.506;4.678;2022-08-01T01:48:49;101740.53;;;18.60;100.00
61643;BME280;47551;52.506;4.678;2022-08-01T01:49:10;101748.63;;;18.59;100.00
61643;BME280;47551;52.506;4.678;2022-08-01T01:49:32;101750.34;;;18.60;100.00
61643;BME280;47551;52.506;4.678;2022-08-01T01:49:55;101748.44;;;18.62;100.00
61643;BME280;47551;52.506;4.678;2022-08-01T01:50:22;101755.56;;;18.61;100.00
61643;BME280;47551;52.506;4.678;2022-08-01T01:50:46;101751.31;;;18.59;100.00
61643;BME280;47551;52.506;4.678;2022-08-01T01:51:07;101751.31;;;18.59;100.00
61643;BME280;47551;52.506;4.678;2022-08-01T01:51:29;101748.63;;;18.59;100.00
61643;BME280;47551;52.506;4.678;2022-08-01T01:51:54;101745.97;;;18.59;100.00
61643;BME280;47551;52.506;4.678;2022-08-01T01:52:16;101743.38;;;18.57;100.00
61643;BME280;47551;52.506;4.678;2022-08-01T01:52:39;101748.81;;;18.56;100.00
61643;BME280;47551;52.506;4.678;2022-08-01T01:53:01;101746.34;;;18.53;100.00
61643;BME280;47551;52.506;4.678;2022-08-01T01:53:22;101750.72;;;18.54;100.00
61643;BME280;47551;52.506;4.678;2022-08-01T01:53:47;101744.50;;;18.53;100.00
61643;BME280;47551;52.506;4.678;2022-08-01T01:54:09;101754.16;;;18.56;100.00
61643;BME280;47551;52.506;4.678;2022-08-01T01:54:33;101756.91;;;18.54;100.00
61643;BME280;47551;52.506;4.678;2022-08-01T01:54:58;101748.22;;;18.50;100.00
61643;BME280;47551;52.506;4.678;2022-08-01T01:55:23;101755.31;;;18.52;100.00
61643;BME280;47551;52.506;4.678;2022-08-01T01:55:47;101755.19;;;18.53;100.00
61643;BME280;47551;52.506;4.678;2022-08-01T01:56:09;101749.00;;;18.53;100.00
61643;BME280;47551;52.506;4.678;2022-08-01T01:56:32;101748.16;;;18.52;100.00
61643;BME280;47551;52.506;4.678;2022-08-01T01:56:55;101753.66;;;18.49;100.00
61643;BME280;47551;52.506;4.678;2022-08-01T01:57:18;101750.91;;;18.50;100.00
61643;BME280;47551;52.506;4.678;2022-08-01T01:57:40;101747.47;;;18.48;100.00
61643;BME280;47551;52.506;4.678;2022-08-01T01:58:01;101750.22;;;18.47;100.00
61643;BME280;47551;52.506;4.678;2022-08-01T01:58:22;101755.66;;;18.45;100.00
61643;BME280;47551;52.506;4.678;2022-08-01T01:58:45;101749.53;;;18.43;100.00
61643;BME280;47551;52.506;4.678;2022-08-01T01:59:09;101749.38;;;18.46;100.00
61643;BME280;47551;52.506;4.678;2022-08-01T01:59:31;101746.63;;;18.48;100.00
61643;BME280;47551;52.506;4.678;2022-08-01T01:59:53;101748.34;;;18.49;100.00
61643;BME280;47551;52.506;4.678;2022-08-01T02:00:14;101744.03;;;18.46;100.00
61643;BME280;47551;52.506;4.678;2022-08-01T02:00:38;101751.28;;;18.44;100.00
61643;BME280;47551;52.506;4.678;2022-08-01T02:01:01;101744.38;;;18.40;100.00
61643;BME280;47551;52.506;4.678;2022-08-01T02:01:25;101750.59;;;18.41;100.00
61643;BME280;47551;52.506;4.678;2022-08-01T02:01:48;101751.47;;;18.41;100.00
61643;BME280;47551;52.506;4.678;2022-08-01T02:02:10;101754.31;;;18.38;100.00
61643;BME280;47551;52.506;4.678;2022-08-01T02:02:32;101756.31;;;18.35;100.00
61643;BME280;47551;52.506;4.678;2022-08-01T02:02:55;101754.56;;;18.34;100.00
61643;BME280;47551;52.506;4.678;2022-08-01T02:03:17;101755.66;;;18.31;100.00
61643;BME280;47551;52.506;4.678;2022-08-01T02:03:38;101751.16;;;18.32;100.00
61643;BME280;47551;52.506;4.678;2022-08-01T02:04:04;101751.53;;;18.25;100.00
61643;BME280;47551;52.506;4.678;2022-08-01T02:04:26;101753.41;;;18.23;100.00
61643;BME280;47551;52.506;4.678;2022-08-01T02:04:48;101751.63;;;18.24;100.00
61643;BME280;47551;52.506;4.678;2022-08-01T02:05:10;101757.63;;;18.27;100.00
61643;BME280;47551;52.506;4.678;2022-08-01T02:05:32;101759.41;;;18.27;100.00
61643;BME280;47551;52.506;4.678;2022-08-01T02:05:55;101767.03;;;18.19;100.00
61643;BME280;47551;52.506;4.678;2022-08-01T02:06:17;101759.88;;;18.19;100.00
61643;BME280;47551;52.506;4.678;2022-08-01T02:06:39;101759.69;;;18.22;100.00